createdAt,value
2022-08-23T00:02:23.862Z,41.19
2022-08-23T00:05:07.527Z,41.22
2022-08-23T00:07:42.015Z,41.83
2022-08-23T00:10:11.588Z,41.79
2022-08-23T00:12:39.274Z,42.48
2022-08-23T00:15:08.901Z,42.33
2022-08-23T00:17:36.941Z,42.47
2022-08-23T00:20:08.759Z,42.21
2022-08-23T00:22:37.781Z,42.41
2022-08-23T00:25:07.196Z,42.80
2022-08-23T00:27:33.980Z,42.91
2022-08-23T00:30:01.067Z,42.99
2022-08-23T00:32:31.352Z,43.02
2022-08-23T00:35:00.669Z,42.86
2022-08-23T00:37:29.084Z,43.18
2022-08-23T00:39:55.790Z,43.06
2022-08-23T00:42:42.085Z,43.47
2022-08-23T00:45:32.211Z,43.24
2022-08-23T00:47:59.520Z,43.28
2022-08-23T00:50:26.545Z,43.68
2022-08-23T00:52:59.167Z,43.80
2022-08-23T00:55:27.266Z,43.64
2022-08-23T00:57:54.814Z,43.61
2022-08-23T01:00:22.598Z,44.02
2022-08-23T01:02:51.044Z,43.88
2022-08-23T01:05:19.193Z,43.99
2022-08-23T01:07:52.808Z,43.78
2022-08-23T01:10:33.187Z,43.67
2022-08-23T01:13:14.818Z,43.82
2022-08-23T01:15:47.836Z,43.67
2022-08-23T01:18:17.672Z,43.67
2022-08-23T01:21:13.464Z,43.72
2022-08-23T01:23:43.448Z,43.73
2022-08-23T01:26:11.794Z,44.11
2022-08-23T01:28:40.746Z,44.11
2022-08-23T01:31:09.054Z,43.97
2022-08-23T01:33:38.524Z,43.82
2022-08-23T01:36:09.873Z,43.80
2022-08-23T01:38:38.223Z,43.66
2022-08-23T01:41:09.569Z,43.74
2022-08-23T01:43:37.010Z,43.86
2022-08-23T01:46:14.950Z,43.56
2022-08-23T01:48:41.937Z,43.64
2022-08-23T01:51:09.385Z,43.60
2022-08-23T01:53:36.372Z,43.45
2022-08-23T01:56:05.220Z,43.30
2022-08-23T01:58:36.497Z,43.21
2022-08-23T02:01:04.675Z,43.19
2022-08-23T02:03:34.276Z,43.86
2022-08-23T02:06:01.128Z,43.42
2022-08-23T02:08:46.539Z,43.90
2022-08-23T02:11:16.871Z,43.91
2022-08-23T02:13:46.438Z,44.27
2022-08-23T02:16:25.608Z,43.95
2022-08-23T02:18:56.522Z,44.13
2022-08-23T02:21:24.592Z,43.95
2022-08-23T02:23:51.585Z,44.42
2022-08-23T02:26:19.067Z,44.88
2022-08-23T02:28:50.025Z,45.20
2022-08-23T02:31:16.967Z,45.81
2022-08-23T02:33:46.229Z,45.99
2022-08-23T02:36:14.240Z,46.31
2022-08-23T02:38:41.376Z,46.37
2022-08-23T02:41:09.299Z,46.89
2022-08-23T02:43:40.954Z,46.76
2022-08-23T02:46:08.068Z,47.33
2022-08-23T02:48:36.267Z,47.04
2022-08-23T02:51:07.790Z,47.36
2022-08-23T02:53:35.572Z,47.50
2022-08-23T02:56:06.448Z,47.82
2022-08-23T02:58:47.825Z,47.96
2022-08-23T03:01:30.798Z,48.47
2022-08-23T03:04:08.051Z,48.44
2022-08-23T03:06:36.368Z,48.32
2022-08-23T03:09:05.226Z,48.35
2022-08-23T03:11:32.817Z,48.42
2022-08-23T03:14:01.142Z,48.26
2022-08-23T03:16:28.715Z,48.42
2022-08-23T03:18:55.568Z,48.04
2022-08-23T03:21:22.709Z,48.71
2022-08-23T03:23:50.380Z,49.13
2022-08-23T03:26:17.847Z,48.73
2022-08-23T03:28:45.774Z,48.66
2022-08-23T03:31:15.155Z,48.82
2022-08-23T03:33:52.624Z,48.97
2022-08-23T03:36:20.215Z,48.77
2022-08-23T03:38:56.178Z,48.89
2022-08-23T03:41:23.445Z,49.35
2022-08-23T03:43:50.574Z,48.97
2022-08-23T03:46:24.604Z,49.45
2022-08-23T03:49:00.016Z,49.42
2022-08-23T03:51:31.873Z,49.37
2022-08-23T03:54:01.155Z,49.04
2022-08-23T03:56:29.764Z,48.50
2022-08-23T03:58:58.786Z,48.66
2022-08-23T04:01:28.527Z,48.12
2022-08-23T04:03:59.909Z,48.92
2022-08-23T04:06:29.551Z,48.83
2022-08-23T04:08:56.498Z,48.57
2022-08-23T04:11:23.782Z,48.84
2022-08-23T04:13:57.240Z,48.66
2022-08-23T04:16:24.202Z,49.03
2022-08-23T04:18:51.148Z,48.88
2022-08-23T04:21:22.490Z,49.16
2022-08-23T04:23:49.686Z,49.20
2022-08-23T04:28:44.566Z,49.54
2022-08-23T04:33:42.657Z,49.09
2022-08-23T04:36:12.478Z,49.46
2022-08-23T04:38:39.272Z,49.19
2022-08-23T04:41:26.506Z,49.09
2022-08-23T04:43:56.885Z,48.59
2022-08-23T04:46:24.641Z,48.60
2022-08-23T04:48:54.343Z,48.54
2022-08-23T04:51:22.224Z,48.75
2022-08-23T04:53:49.330Z,49.45
2022-08-23T04:56:35.468Z,49.57
2022-08-23T04:59:03.330Z,49.45
2022-08-23T05:01:31.624Z,49.91
2022-08-23T05:04:00.169Z,49.58
2022-08-23T05:06:28.708Z,49.92
2022-08-23T05:08:55.436Z,50.47
2022-08-23T05:11:22.680Z,49.85
2022-08-23T05:13:49.808Z,49.82
2022-08-23T05:16:17.418Z,49.30
2022-08-23T05:18:53.580Z,49.38
2022-08-23T05:21:22.793Z,49.54
2022-08-23T05:23:50.975Z,49.40
2022-08-23T05:26:23.386Z,49.79
2022-08-23T05:28:50.675Z,49.94
2022-08-23T05:31:23.807Z,49.34
2022-08-23T05:33:57.217Z,48.49
2022-08-23T05:36:31.145Z,48.18
2022-08-23T05:38:58.533Z,47.71
2022-08-23T05:41:37.006Z,47.21
2022-08-23T05:44:06.740Z,45.94
2022-08-23T05:46:34.740Z,45.22
2022-08-23T05:49:30.756Z,44.11
2022-08-23T05:51:58.370Z,43.93
2022-08-23T05:54:29.266Z,43.00
2022-08-23T05:57:31.109Z,41.62
2022-08-23T05:59:57.781Z,41.08
2022-08-23T06:02:24.492Z,40.95
2022-08-23T06:04:55.539Z,40.37
2022-08-23T06:07:24.114Z,38.77
2022-08-23T06:09:50.901Z,38.43
2022-08-23T06:12:18.548Z,37.95
2022-08-23T06:14:45.200Z,37.67
2022-08-23T06:17:11.966Z,36.90
2022-08-23T06:19:38.757Z,35.49
2022-08-23T06:22:31.408Z,35.29
2022-08-23T06:24:58.247Z,35.17
2022-08-23T06:27:42.567Z,34.51
2022-08-23T06:30:11.894Z,34.46
2022-08-23T06:32:46.495Z,34.78
2022-08-23T06:35:39.956Z,34.36
2022-08-23T06:38:22.234Z,32.37
2022-08-23T06:41:12.973Z,30.99
2022-08-23T06:43:52.218Z,30.49
2022-08-23T06:46:33.017Z,30.16
2022-08-23T06:49:00.778Z,29.59
2022-08-23T06:51:32.079Z,29.38
2022-08-23T06:54:21.734Z,28.78
2022-08-23T06:57:06.936Z,27.39
2022-08-23T06:59:51.064Z,25.76
2022-08-23T07:02:44.264Z,25.61
2022-08-23T07:05:35.621Z,26.29
2022-08-23T07:08:11.870Z,25.68
2022-08-23T07:10:39.302Z,25.42
2022-08-23T07:13:06.079Z,24.46
2022-08-23T07:15:32.879Z,24.93
2022-08-23T07:18:00.364Z,24.67
2022-08-23T07:20:29.325Z,25.67
2022-08-23T07:22:56.202Z,25.33
2022-08-23T07:25:23.286Z,25.51
2022-08-23T07:27:55.145Z,25.38
2022-08-23T07:30:22.419Z,24.63
2022-08-23T07:32:50.974Z,25.36
2022-08-23T07:35:22.275Z,25.50
2022-08-23T07:37:51.600Z,23.99
2022-08-23T07:40:20.739Z,24.70
2022-08-23T07:42:49.894Z,24.11
2022-08-23T07:45:17.914Z,23.62
2022-08-23T07:47:50.621Z,23.52
2022-08-23T07:50:18.298Z,23.55
2022-08-23T07:52:46.348Z,23.23
2022-08-23T07:55:14.103Z,23.51
2022-08-23T07:58:09.984Z,22.76
2022-08-23T08:01:11.912Z,21.01
2022-08-23T08:03:46.843Z,20.04
2022-08-23T08:06:33.886Z,19.65
2022-08-23T08:09:01.033Z,19.37
2022-08-23T08:11:34.885Z,19.28
2022-08-23T08:14:08.205Z,18.01
2022-08-23T08:16:41.219Z,17.18
2022-08-23T08:19:11.996Z,17.85
2022-08-23T08:21:57.297Z,17.31
2022-08-23T08:24:44.374Z,17.29
2022-08-23T08:27:12.937Z,16.90
2022-08-23T08:29:40.705Z,16.58
2022-08-23T08:32:08.992Z,16.56
2022-08-23T08:34:41.555Z,16.36
2022-08-23T08:37:09.670Z,15.72
2022-08-23T08:39:36.459Z,15.49
2022-08-23T08:42:07.794Z,15.41
2022-08-23T08:44:58.110Z,14.56
2022-08-23T08:47:40.946Z,14.22
2022-08-23T08:50:16.681Z,14.71
2022-08-23T08:52:54.712Z,14.18
2022-08-23T08:55:47.510Z,13.35
2022-08-23T08:58:28.997Z,13.40
2022-08-23T09:00:56.855Z,13.07
2022-08-23T09:03:26.447Z,12.24
2022-08-23T09:06:05.915Z,12.21
2022-08-23T09:08:41.209Z,11.89
2022-08-23T09:11:22.351Z,11.90
2022-08-23T09:13:53.544Z,11.91
2022-08-23T09:16:38.695Z,11.99
2022-08-23T09:19:06.421Z,11.37
2022-08-23T09:22:02.739Z,10.12
2022-08-23T09:24:31.442Z,10.70
2022-08-23T09:27:09.989Z,11.95
2022-08-23T09:29:39.427Z,12.54
2022-08-23T09:32:27.235Z,12.53
2022-08-23T09:35:06.499Z,12.41
2022-08-23T09:37:47.808Z,11.05
2022-08-23T09:40:34.302Z,10.59
2022-08-23T09:43:27.975Z,10.10
2022-08-23T09:46:01.276Z,10.05
2022-08-23T09:48:43.186Z,10.40
2022-08-23T09:51:31.096Z,10.87
2022-08-23T09:54:21.608Z,9.80
2022-08-23T09:56:57.262Z,9.62
2022-08-23T09:59:27.986Z,9.16
2022-08-23T10:02:04.525Z,9.40
2022-08-23T10:04:37.340Z,9.08
2022-08-23T10:07:25.998Z,8.65
2022-08-23T10:10:12.555Z,8.73
2022-08-23T10:12:39.331Z,9.05
2022-08-23T10:15:09.474Z,9.83
2022-08-23T10:18:07.211Z,10.09
2022-08-23T10:20:56.724Z,10.08
2022-08-23T10:23:55.837Z,9.30
2022-08-23T10:26:35.277Z,8.50
2022-08-23T10:29:28.561Z,8.12
2022-08-23T10:32:21.401Z,7.55
2022-08-23T10:35:49.483Z,8.19
2022-08-23T10:38:28.463Z,8.08
2022-08-23T10:41:22.153Z,8.29
2022-08-23T10:44:24.117Z,9.29
2022-08-23T10:47:15.932Z,9.47
2022-08-23T10:49:44.022Z,9.08
2022-08-23T10:52:17.460Z,8.68
2022-08-23T10:54:59.502Z,8.14
2022-08-23T10:57:34.183Z,8.89
2022-08-23T11:00:11.804Z,9.01
2022-08-23T11:02:56.093Z,8.54
2022-08-23T11:05:30.667Z,8.43
2022-08-23T11:08:11.330Z,8.72
2022-08-23T11:10:39.194Z,8.51
2022-08-23T11:13:21.369Z,8.12
2022-08-23T11:16:07.213Z,8.02
2022-08-23T11:18:36.829Z,7.60
2022-08-23T11:21:26.224Z,7.27
2022-08-23T11:23:58.429Z,7.37
2022-08-23T11:26:26.603Z,7.50
2022-08-23T11:28:56.839Z,7.93
2022-08-23T11:31:27.312Z,7.69
2022-08-23T11:34:04.963Z,7.99
2022-08-23T11:36:34.492Z,7.86
2022-08-23T11:39:09.198Z,7.46
2022-08-23T11:41:56.370Z,6.95
2022-08-23T11:44:35.464Z,6.59
2022-08-23T11:47:06.549Z,6.38
2022-08-23T11:49:57.494Z,7.26
2022-08-23T11:52:37.502Z,7.52
2022-08-23T11:55:07.098Z,6.46
2022-08-23T11:58:05.781Z,8.32
2022-08-23T12:01:11.039Z,7.65
2022-08-23T12:03:59.846Z,7.49
2022-08-23T12:06:58.232Z,9.36
2022-08-23T12:09:25.876Z,10.83
2022-08-23T12:11:55.422Z,12.96
2022-08-23T12:14:31.344Z,14.43
2022-08-23T12:17:05.410Z,14.87
2022-08-23T12:19:40.395Z,15.38
2022-08-23T12:22:52.602Z,14.62
2022-08-23T12:25:22.198Z,14.10
2022-08-23T12:27:55.658Z,14.22
2022-08-23T12:30:29.895Z,14.44
2022-08-23T12:33:30.993Z,15.44
2022-08-23T12:36:16.614Z,15.38
2022-08-23T12:39:19.718Z,16.04
2022-08-23T12:42:11.531Z,16.46
2022-08-23T12:44:38.591Z,17.40
2022-08-23T12:47:24.409Z,16.95
2022-08-23T12:50:32.672Z,16.77
2022-08-23T12:53:27.982Z,16.37
2022-08-23T12:56:07.973Z,16.03
2022-08-23T12:58:38.661Z,15.38
2022-08-23T13:01:20.403Z,15.67
2022-08-23T13:03:51.107Z,15.71
2022-08-23T13:06:34.381Z,15.42
2022-08-23T13:09:07.653Z,16.54
2022-08-23T13:11:38.105Z,17.00
2022-08-23T13:14:24.707Z,17.61
2022-08-23T13:16:52.543Z,17.78
2022-08-23T13:19:31.459Z,18.02
2022-08-23T13:22:21.995Z,17.28
2022-08-23T13:25:24.548Z,17.17
2022-08-23T13:27:46.920Z,17.73
2022-08-23T13:30:14.014Z,17.09
2022-08-23T13:32:52.296Z,17.74
2022-08-23T13:35:29.190Z,17.63
2022-08-23T13:38:00.688Z,17.61
2022-08-23T13:40:32.234Z,17.64
2022-08-23T13:43:09.898Z,17.38
2022-08-23T13:45:46.219Z,17.65
2022-08-23T13:48:33.910Z,17.25
2022-08-23T13:51:24.692Z,17.05
2022-08-23T13:53:53.272Z,17.12
2022-08-23T13:56:21.222Z,17.24
2022-08-23T13:59:01.117Z,17.08
2022-08-23T14:01:29.048Z,16.84
2022-08-23T14:03:56.390Z,17.78
2022-08-23T14:06:23.992Z,18.13
2022-08-23T14:08:51.371Z,18.20
2022-08-23T14:11:18.290Z,18.64
2022-08-23T14:13:47.812Z,18.78
2022-08-23T14:16:40.151Z,18.74
2022-08-23T14:19:54.317Z,18.93
2022-08-23T14:21:57.601Z,18.73
2022-08-23T14:24:26.967Z,19.10
2022-08-23T14:26:54.933Z,18.57
2022-08-23T14:29:23.457Z,18.53
2022-08-23T14:31:51.855Z,18.79
2022-08-23T14:34:19.127Z,18.96
2022-08-23T14:39:32.751Z,18.92
2022-08-23T14:41:59.694Z,19.10
2022-08-23T14:44:31.586Z,19.50
2022-08-23T14:47:00.282Z,18.96
2022-08-23T14:49:27.158Z,18.70
2022-08-23T14:51:54.289Z,18.55
2022-08-23T14:54:24.743Z,19.42
2022-08-23T14:56:53.363Z,19.04
2022-08-23T14:59:20.579Z,19.40
2022-08-23T15:01:49.951Z,19.73
2022-08-23T15:04:19.888Z,19.71
2022-08-23T15:07:14.080Z,19.50
2022-08-23T15:09:34.191Z,19.41
2022-08-23T15:14:48.491Z,20.07
2022-08-23T15:17:15.383Z,19.46
2022-08-23T15:19:42.123Z,20.24
2022-08-23T15:22:21.359Z,20.35
2022-08-23T15:24:49.460Z,20.31
2022-08-23T15:27:17.913Z,20.14
2022-08-23T15:29:44.690Z,21.14
2022-08-23T15:32:12.739Z,20.90
2022-08-23T15:34:45.690Z,21.72
2022-08-23T15:37:14.112Z,21.90
2022-08-23T15:39:42.314Z,21.54
2022-08-23T15:42:09.688Z,21.79
2022-08-23T15:44:36.735Z,22.08
2022-08-23T15:47:05.633Z,21.84
2022-08-23T15:49:36.307Z,21.06
2022-08-23T15:52:04.440Z,21.88
2022-08-23T15:54:31.509Z,21.46
2022-08-23T15:56:58.557Z,21.66
2022-08-23T15:59:25.732Z,21.53
2022-08-23T16:01:52.616Z,21.55
2022-08-23T16:04:19.449Z,20.92
2022-08-23T16:06:46.974Z,21.10
2022-08-23T16:09:24.000Z,20.80
2022-08-23T16:11:51.711Z,20.87
2022-08-23T16:14:18.690Z,21.09
2022-08-23T16:16:48.476Z,21.11
2022-08-23T16:19:16.844Z,21.57
2022-08-23T16:21:45.042Z,21.54
2022-08-23T16:24:11.829Z,21.49
2022-08-23T16:26:41.920Z,22.63
2022-08-23T16:29:10.984Z,22.73
2022-08-23T16:31:39.723Z,22.27
2022-08-23T16:34:09.750Z,22.31
2022-08-23T16:36:37.092Z,21.63
2022-08-23T16:39:05.287Z,21.98
2022-08-23T16:41:32.349Z,22.70
2022-08-23T16:43:59.309Z,22.04
2022-08-23T16:46:26.663Z,22.05
2022-08-23T16:48:53.427Z,22.76
2022-08-23T16:51:20.324Z,22.69
2022-08-23T16:54:01.739Z,23.40
2022-08-23T16:56:31.569Z,22.60
2022-08-23T16:58:58.623Z,22.83
2022-08-23T17:01:26.068Z,23.29
2022-08-23T17:03:52.884Z,23.24
2022-08-23T17:06:19.863Z,23.01
2022-08-23T17:08:46.701Z,23.71
2022-08-23T17:11:16.894Z,23.76
2022-08-23T17:13:44.148Z,23.68
2022-08-23T17:16:11.311Z,23.84
2022-08-23T17:18:38.736Z,23.82
2022-08-23T17:21:06.696Z,23.91
2022-08-23T17:23:33.434Z,23.77
2022-08-23T17:26:06.235Z,23.99
2022-08-23T17:28:32.985Z,24.39
2022-08-23T17:30:59.669Z,23.91
2022-08-23T17:33:26.448Z,24.01
2022-08-23T17:35:53.297Z,24.21
2022-08-23T17:38:20.862Z,24.77
2022-08-23T17:40:47.692Z,24.74
2022-08-23T17:43:14.404Z,24.90
2022-08-23T17:45:47.501Z,24.33
2022-08-23T17:48:16.401Z,24.40
2022-08-23T17:50:43.952Z,25.21
2022-08-23T17:53:11.319Z,25.16
2022-08-23T17:55:39.238Z,25.31
2022-08-23T17:58:08.578Z,25.16
2022-08-23T18:00:39.369Z,25.31
2022-08-23T18:03:06.810Z,25.62
2022-08-23T18:05:34.742Z,26.20
2022-08-23T18:08:01.580Z,26.81
2022-08-23T18:10:29.964Z,27.05
2022-08-23T18:12:57.932Z,27.64
2022-08-23T18:15:24.775Z,27.18
2022-08-23T18:17:52.201Z,26.58
2022-08-23T18:20:23.366Z,27.03
2022-08-23T18:22:50.155Z,27.11
2022-08-23T18:25:17.063Z,26.90
2022-08-23T18:28:03.083Z,27.39
2022-08-23T18:30:30.153Z,27.44
2022-08-23T18:32:57.643Z,27.30
2022-08-23T18:35:25.934Z,27.77
2022-08-23T18:37:54.349Z,27.88
2022-08-23T18:40:21.307Z,27.77
2022-08-23T18:42:48.374Z,27.74
2022-08-23T18:45:15.227Z,28.55
2022-08-23T18:47:41.992Z,28.26
2022-08-23T18:50:11.192Z,28.70
2022-08-23T18:52:38.253Z,28.66
2022-08-23T18:55:06.102Z,29.36
2022-08-23T18:57:33.449Z,30.06
2022-08-23T19:00:00.171Z,29.47
2022-08-23T19:02:27.056Z,29.63
2022-08-23T19:04:54.887Z,30.58
2022-08-23T19:07:21.637Z,30.13
2022-08-23T19:09:48.357Z,29.07
2022-08-23T19:12:15.092Z,29.85
2022-08-23T19:14:41.840Z,29.84
2022-08-23T19:17:08.532Z,30.78
2022-08-23T19:19:35.862Z,30.81
2022-08-23T19:22:03.656Z,31.33
2022-08-23T19:24:30.818Z,31.33
2022-08-23T19:26:57.654Z,31.72
2022-08-23T19:29:24.353Z,31.74
2022-08-23T19:31:51.168Z,32.77
2022-08-23T19:34:20.084Z,32.52
2022-08-23T19:36:51.761Z,32.93
2022-08-23T19:39:26.013Z,33.22
2022-08-23T19:42:02.791Z,33.50
2022-08-23T19:44:32.602Z,33.58
2022-08-23T19:46:59.345Z,34.02
2022-08-23T19:49:26.045Z,33.86
2022-08-23T19:51:53.180Z,33.00
2022-08-23T19:54:20.394Z,33.22
2022-08-23T19:56:50.368Z,33.25
2022-08-23T19:59:30.318Z,32.88
2022-08-23T20:01:58.780Z,32.90
2022-08-23T20:04:27.574Z,32.58
2022-08-23T20:06:55.175Z,32.07
2022-08-23T20:09:22.865Z,31.96
2022-08-23T20:11:52.529Z,32.92
2022-08-23T20:14:20.677Z,33.72
2022-08-23T20:16:48.892Z,34.10
2022-08-23T20:19:16.131Z,34.69
2022-08-23T20:21:43.178Z,34.70
2022-08-23T20:24:11.640Z,34.31
2022-08-23T20:26:43.032Z,34.72
2022-08-23T20:29:17.180Z,34.89
2022-08-23T20:31:53.251Z,35.66
2022-08-23T20:34:20.746Z,35.75
2022-08-23T20:36:48.088Z,35.60
2022-08-23T20:39:19.211Z,35.82
2022-08-23T20:41:48.598Z,35.66
2022-08-23T20:44:15.647Z,35.71
2022-08-23T20:46:44.058Z,35.00
2022-08-23T20:49:11.611Z,34.63
2022-08-23T20:51:38.730Z,34.57
2022-08-23T20:54:09.787Z,34.56
2022-08-23T20:56:37.733Z,34.69
2022-08-23T20:59:06.372Z,34.75
2022-08-23T21:01:33.537Z,35.84
2022-08-23T21:04:01.105Z,36.00
2022-08-23T21:06:30.321Z,36.48
2022-08-23T21:08:59.979Z,36.40
2022-08-23T21:11:28.304Z,36.83
2022-08-23T21:13:56.499Z,36.61
2022-08-23T21:16:24.351Z,37.16
2022-08-23T21:18:54.423Z,37.21
2022-08-23T21:21:24.316Z,37.40
2022-08-23T21:23:51.363Z,37.55
2022-08-23T21:26:18.863Z,37.27
2022-08-23T21:28:45.785Z,37.69
2022-08-23T21:31:15.527Z,37.87
2022-08-23T21:33:44.501Z,37.91
2022-08-23T21:36:12.928Z,37.21
2022-08-23T21:38:39.963Z,36.76
2022-08-23T21:41:11.247Z,36.78
2022-08-23T21:43:39.204Z,36.98
2022-08-23T21:46:07.291Z,37.27
2022-08-23T21:48:34.662Z,37.16
2022-08-23T21:51:01.471Z,37.44
2022-08-23T21:53:28.167Z,37.37
2022-08-23T21:55:54.876Z,36.70
2022-08-23T21:58:21.559Z,37.04
2022-08-23T22:00:48.315Z,37.01
2022-08-23T22:03:15.355Z,36.57
2022-08-23T22:05:44.053Z,37.16
2022-08-23T22:08:14.352Z,36.74
2022-08-23T22:10:48.144Z,37.66
2022-08-23T22:13:26.650Z,37.24
2022-08-23T22:15:53.508Z,38.23
2022-08-23T22:18:20.782Z,37.83
2022-08-23T22:20:47.590Z,37.91
2022-08-23T22:23:14.414Z,38.57
2022-08-23T22:25:41.240Z,38.53
2022-08-23T22:28:08.176Z,40.09
2022-08-23T22:30:34.913Z,40.21
2022-08-23T22:33:01.915Z,40.31
2022-08-23T22:35:28.958Z,40.56
2022-08-23T22:38:12.642Z,40.11
2022-08-23T22:40:51.985Z,40.77
2022-08-23T22:43:20.026Z,41.15
2022-08-23T22:45:55.551Z,40.61
2022-08-23T22:48:22.983Z,40.28
2022-08-23T22:50:49.817Z,40.07
2022-08-23T22:53:17.818Z,40.13
2022-08-23T22:55:51.026Z,39.99
2022-08-23T22:58:18.315Z,40.14
2022-08-23T23:00:46.083Z,40.52
2022-08-23T23:03:12.742Z,40.77
2022-08-23T23:05:39.727Z,40.82
2022-08-23T23:08:25.333Z,40.96
2022-08-23T23:10:52.083Z,40.75
2022-08-23T23:13:20.875Z,40.71
2022-08-23T23:15:47.586Z,40.86
2022-08-23T23:18:14.352Z,40.46
2022-08-23T23:20:41.048Z,40.48
2022-08-23T23:23:14.655Z,40.10
2022-08-23T23:25:43.223Z,40.91
2022-08-23T23:28:10.255Z,41.01
2022-08-23T23:30:37.078Z,41.39
2022-08-23T23:33:04.617Z,42.06
2022-08-23T23:35:31.537Z,41.26
2022-08-23T23:37:58.444Z,40.79
2022-08-23T23:40:26.766Z,40.94
2022-08-23T23:42:54.106Z,41.41
2022-08-23T23:45:21.199Z,41.38
2022-08-23T23:47:48.006Z,41.13
2022-08-23T23:50:15.014Z,41.24
2022-08-23T23:52:42.351Z,42.16
2022-08-23T23:55:12.156Z,41.67
2022-08-23T23:57:39.208Z,41.43
